Time;durP1;ratioP1;P1;durP2;ratioP2;P2;SDS_P1;SDS_P2;PMS_P1;PMS_P2;Temp;Humidity;BMP_temperature;BMP_pressure;BME280_temperature;BME280_humidity;BME280_pressure;Samples;Min_cycle;Max_cycle;Signal;HPM_P1;HPM_P2
2022/03/03 00:00:06;;;;;;;0.30;0.30;;;0.30;99.90;;;;;;5035538;28;20533;-77
2022/03/03 00:02:33;;;;;;;0.37;0.37;;;0.20;99.90;;;;;;5035389;28;20446;-77
2022/03/03 00:04:59;;;;;;;0.50;0.33;;;0.20;99.90;;;;;;5035439;28;20814;-77
2022/03/03 00:07:26;;;;;;;0.57;0.57;;;0.10;99.90;;;;;;5035286;28;20458;-77
2022/03/03 00:09:53;;;;;;;0.30;0.30;;;0.20;99.90;;;;;;5034899;28;20491;-77
2022/03/03 00:12:21;;;;;;;0.30;0.27;;;0.10;99.90;;;;;;5035099;28;20495;-77
2022/03/03 00:14:47;;;;;;;0.30;0.30;;;0.10;99.90;;;;;;5035116;28;20454;-77
2022/03/03 00:17:14;;;;;;;0.50;0.50;;;0.10;99.90;;;;;;5034748;28;20820;-77
2022/03/03 00:19:42;;;;;;;0.40;0.40;;;0.00;99.90;;;;;;5034619;28;20467;-77
2022/03/03 00:22:09;;;;;;;0.80;0.80;;;-0.10;99.90;;;;;;5035086;28;20493;-77
2022/03/03 00:24:36;;;;;;;0.30;0.30;;;0.00;99.90;;;;;;5034628;28;20969;-77
2022/03/03 00:27:02;;;;;;;0.40;0.40;;;0.00;99.90;;;;;;5034517;28;20821;-77
2022/03/03 00:29:30;;;;;;;0.30;0.30;;;0.10;99.90;;;;;;5034638;28;20474;-77
2022/03/03 00:31:57;;;;;;;0.40;0.40;;;0.20;99.90;;;;;;5034651;28;20454;-77
2022/03/03 00:34:24;;;;;;;2.93;0.83;;;0.20;99.90;;;;;;5034701;28;20802;-77
2022/03/03 00:36:51;;;;;;;0.40;0.40;;;0.20;99.90;;;;;;5034904;28;20938;-77
2022/03/03 00:39:17;;;;;;;0.30;0.30;;;0.20;99.90;;;;;;5034533;28;20494;-77
2022/03/03 00:41:44;;;;;;;0.60;0.50;;;0.20;99.90;;;;;;5034605;28;20477;-77
2022/03/03 00:44:11;;;;;;;0.37;0.37;;;0.10;99.90;;;;;;5034752;28;20454;-77
2022/03/03 00:46:39;;;;;;;0.30;0.30;;;0.10;99.90;;;;;;5034318;28;20431;-77
2022/03/03 00:49:07;;;;;;;1.07;0.93;;;0.10;99.90;;;;;;5034359;28;20467;-77
2022/03/03 00:51:34;;;;;;;2.00;1.60;;;0.10;99.90;;;;;;5034322;28;20454;-77
2022/03/03 00:54:00;;;;;;;0.30;0.30;;;0.00;99.90;;;;;;5034272;28;20849;-77
2022/03/03 00:56:27;;;;;;;0.30;0.30;;;0.00;99.90;;;;;;5034275;28;20446;-77
2022/03/03 00:58:54;;;;;;;0.40;0.40;;;0.00;99.90;;;;;;5034424;28;20829;-77
2022/03/03 01:01:21;;;;;;;0.40;0.40;;;0.00;99.90;;;;;;5034270;28;20453;-76
2022/03/03 01:03:49;;;;;;;0.30;0.30;;;0.00;99.90;;;;;;5034040;28;20449;-77
2022/03/03 01:06:15;;;;;;;0.67;0.40;;;0.00;99.90;;;;;;5033832;28;20973;-77
2022/03/03 01:08:42;;;;;;;0.30;0.30;;;-0.10;99.90;;;;;;5033944;28;20459;-77
2022/03/03 01:11:09;;;;;;;0.30;0.30;;;-0.20;99.90;;;;;;5033852;28;21011;-77
2022/03/03 01:13:36;;;;;;;8.60;0.93;;;-0.20;99.90;;;;;;5034193;28;20482;-77
2022/03/03 01:16:03;;;;;;;0.40;0.40;;;-0.20;99.90;;;;;;5033952;28;20447;-76
2022/03/03 01:18:30;;;;;;;0.30;0.30;;;-0.20;99.90;;;;;;5033921;28;20462;-77
2022/03/03 01:20:58;;;;;;;0.30;0.30;;;-0.20;99.90;;;;;;5033939;28;20457;-77
2022/03/03 01:23:25;;;;;;;0.60;0.60;;;-0.30;99.90;;;;;;5033565;28;20825;-77
2022/03/03 01:25:52;;;;;;;0.50;0.40;;;-0.30;99.90;;;;;;5033785;28;20451;-77
2022/03/03 01:28:19;;;;;;;0.40;0.40;;;-0.30;99.90;;;;;;5033744;28;20459;-76
2022/03/03 01:30:45;;;;;;;0.77;0.40;;;-0.30;99.90;;;;;;5033529;28;20832;-77
2022/03/03 01:33:13;;;;;;;0.30;0.30;;;-0.30;99.90;;;;;;5033290;28;20482;-77
2022/03/03 01:35:40;;;;;;;0.43;0.43;;;-0.20;99.90;;;;;;5033646;28;20454;-76
2022/03/03 01:38:08;;;;;;;0.30;0.30;;;-0.20;99.90;;;;;;5034944;28;20477;-77
2022/03/03 01:40:35;;;;;;;0.40;0.40;;;-0.10;99.90;;;;;;5038419;28;20435;-77
2022/03/03 01:43:02;;;;;;;0.50;0.50;;;-0.20;99.90;;;;;;5039039;28;20450;-76
2022/03/03 01:45:29;;;;;;;0.30;0.30;;;-0.10;99.90;;;;;;5038107;28;20453;-77
2022/03/03 01:47:55;;;;;;;0.30;0.30;;;-0.20;99.90;;;;;;5037770;28;20992;-77
2022/03/03 01:50:22;;;;;;;0.83;0.83;;;-0.20;99.90;;;;;;5037731;28;20446;-77
2022/03/03 01:52:49;;;;;;;0.90;0.87;;;-0.20;99.90;;;;;;5035049;28;20482;-77
2022/03/03 01:55:17;;;;;;;0.30;0.30;;;-0.20;99.90;;;;;;5033858;28;20810;-77
2022/03/03 01:57:44;;;;;;;2.40;0.57;;;-0.20;99.90;;;;;;5033941;28;20470;-77
2022/03/03 02:00:12;;;;;;;0.60;0.53;;;-0.20;99.90;;;;;;5033266;28;20455;-76
2022/03/03 02:02:39;;;;;;;6.37;2.67;;;-0.20;99.90;;;;;;5033600;28;20447;-77
2022/03/03 02:05:07;;;;;;;0.50;0.50;;;-0.20;99.90;;;;;;5034313;28;20447;-77
2022/03/03 02:07:34;;;;;;;0.30;0.20;;;-0.20;99.90;;;;;;5033956;28;21009;-77
2022/03/03 02:10:01;;;;;;;0.40;0.40;;;-0.20;99.90;;;;;;5033710;28;20481;-77
2022/03/03 02:12:30;;;;;;;1.80;0.77;;;-0.20;99.90;;;;;;5034466;28;20446;-77
2022/03/03 02:14:57;;;;;;;0.30;0.30;;;-0.20;99.90;;;;;;5033496;28;20954;-77
2022/03/03 02:17:24;;;;;;;0.40;0.40;;;-0.20;99.90;;;;;;5033370;28;20451;-77
2022/03/03 02:19:51;;;;;;;0.30;0.30;;;-0.20;99.90;;;;;;5033392;28;20447;-77
2022/03/03 02:22:19;;;;;;;0.30;0.30;;;-0.10;99.90;;;;;;5033434;28;20805;-77
2022/03/03 02:24:46;;;;;;;0.40;0.40;;;-0.20;99.90;;;;;;5034437;28;20447;-77
2022/03/03 02:27:13;;;;;;;0.30;0.30;;;-0.20;99.90;;;;;;5035144;28;20469;-77
2022/03/03 02:29:39;;;;;;;1.17;1.17;;;-0.20;99.90;;;;;;5036257;28;20986;-77
2022/03/03 02:32:08;;;;;;;0.57;0.57;;;-0.20;99.90;;;;;;5034631;28;20482;-77
2022/03/03 02:34:35;;;;;;;1.27;1.27;;;-0.20;99.90;;;;;;5034788;28;20489;-77
2022/03/03 02:37:02;;;;;;;0.80;0.80;;;-0.30;99.90;;;;;;5035296;28;20526;-77
2022/03/03 02:39:30;;;;;;;0.40;0.40;;;-0.30;99.90;;;;;;5035094;28;20477;-77
2022/03/03 02:41:57;;;;;;;0.30;0.30;;;-0.40;99.90;;;;;;5034642;28;20449;-77
2022/03/03 02:44:23;;;;;;;0.30;0.30;;;-0.50;99.90;;;;;;5035266;28;20454;-77
2022/03/03 02:46:50;;;;;;;0.30;0.30;;;-0.50;99.90;;;;;;5035468;28;20454;-77
2022/03/03 02:49:17;;;;;;;0.30;0.30;;;-0.50;99.90;;;;;;5036119;28;20463;-76
2022/03/03 02:51:44;;;;;;;0.30;0.30;;;-0.50;99.90;;;;;;5035539;28;20949;-77
2022/03/03 02:54:10;;;;;;;0.30;0.30;;;-0.50;99.90;;;;;;5035804;28;20485;-77
2022/03/03 02:59:19;;;;;;;0.30;0.20;;;-0.50;99.90;;;;;;5034229;28;20957;-77
2022/03/03 03:01:46;;;;;;;0.30;0.30;;;-0.60;99.90;;;;;;5034157;28;20442;-76
2022/03/03 03:04:12;;;;;;;0.40;0.40;;;-0.50;99.90;;;;;;5035572;28;20461;-77
2022/03/03 03:06:39;;;;;;;0.30;0.30;;;-0.60;99.90;;;;;;5035164;28;20442;-77
2022/03/03 03:09:06;;;;;;;0.70;0.70;;;-0.60;99.90;;;;;;5034928;28;20462;-76
2022/03/03 03:11:33;;;;;;;11.03;1.40;;;-0.60;99.90;;;;;;5038074;28;20427;-77
2022/03/03 03:14:01;;;;;;;0.50;0.50;;;-0.60;99.90;;;;;;5038375;28;20494;-77
2022/03/03 03:16:27;;;;;;;0.30;0.30;;;-0.60;99.90;;;;;;5038515;28;20425;-77
2022/03/03 03:18:54;;;;;;;1.33;1.33;;;-0.70;99.90;;;;;;5039144;28;20462;-77
2022/03/03 03:21:21;;;;;;;0.60;0.60;;;-0.70;99.90;;;;;;5037454;28;20819;-77
2022/03/03 03:23:48;;;;;;;0.30;0.30;;;-0.70;99.90;;;;;;5038985;28;20446;-77
2022/03/03 03:26:15;;;;;;;0.50;0.50;;;-0.80;99.90;;;;;;5038493;28;20512;-77
2022/03/03 03:28:41;;;;;;;0.30;0.30;;;-0.80;99.90;;;;;;5038675;28;20474;-77
2022/03/03 03:31:10;;;;;;;0.30;0.20;;;-0.80;99.90;;;;;;5039021;28;20972;-77
2022/03/03 03:33:36;;;;;;;1.37;1.37;;;-0.80;99.90;;;;;;5038417;28;21024;-77
2022/03/03 03:36:04;;;;;;;0.60;0.47;;;-0.80;99.90;;;;;;5037898;28;20443;-77
2022/03/03 03:38:30;;;;;;;0.47;0.47;;;-0.80;99.90;;;;;;5037776;28;21024;-77
2022/03/03 03:40:57;;;;;;;2.20;1.70;;;-0.80;99.90;;;;;;5038562;28;20930;-77
2022/03/03 03:43:24;;;;;;;0.83;0.53;;;-0.90;99.90;;;;;;5037279;28;20446;-77
2022/03/03 03:45:51;;;;;;;0.30;0.30;;;-0.90;99.90;;;;;;5037941;28;20565;-77
2022/03/03 03:48:19;;;;;;;0.30;0.30;;;-0.80;99.90;;;;;;5037755;28;20453;-77
2022/03/03 03:50:46;;;;;;;0.60;0.60;;;-0.90;99.90;;;;;;5038256;28;20442;-77
2022/03/03 03:53:13;;;;;;;0.30;0.30;;;-0.90;99.90;;;;;;5038536;28;20478;-77
2022/03/03 03:55:39;;;;;;;0.30;0.30;;;-0.90;99.90;;;;;;5038046;28;20430;-77
2022/03/03 03:58:06;;;;;;;0.90;0.90;;;-0.90;99.90;;;;;;5037751;28;20985;-77
2022/03/03 04:00:33;;;;;;;0.30;0.30;;;-1.00;99.90;;;;;;5038295;28;20455;-77
2022/03/03 04:02:59;;;;;;;0.40;0.40;;;-0.90;99.90;;;;;;5036664;28;20442;-77
2022/03/03 04:05:28;;;;;;;0.30;0.30;;;-1.00;99.90;;;;;;5036277;28;20444;-77
2022/03/03 04:07:54;;;;;;;0.33;0.33;;;-1.00;99.90;;;;;;5036189;28;20474;-77
2022/03/03 04:10:21;;;;;;;0.30;0.30;;;-1.00;99.90;;;;;;5036477;28;20482;-77
2022/03/03 04:12:48;;;;;;;0.87;0.87;;;-1.00;99.90;;;;;;5036581;28;20453;-77
2022/03/03 04:15:15;;;;;;;0.53;0.53;;;-1.00;99.90;;;;;;5036152;28;20858;-77
2022/03/03 04:17:42;;;;;;;0.53;0.53;;;-1.00;99.90;;;;;;5036478;28;20454;-77
2022/03/03 04:20:10;;;;;;;0.30;0.30;;;-1.00;99.90;;;;;;5035808;28;20451;-77
2022/03/03 04:22:38;;;;;;;0.30;0.30;;;-1.00;99.90;;;;;;5034742;28;20810;-77
2022/03/03 04:25:06;;;;;;;1.17;0.63;;;-0.90;99.90;;;;;;5035217;28;20477;-77
2022/03/03 04:27:32;;;;;;;0.30;0.30;;;-1.00;99.90;;;;;;5034729;28;20424;-77
2022/03/03 04:29:59;;;;;;;0.30;0.30;;;-0.90;99.90;;;;;;5035112;28;20853;-77
2022/03/03 04:32:26;;;;;;;0.30;0.30;;;-0.90;99.90;;;;;;5035187;28;20458;-77
2022/03/03 04:34:53;;;;;;;1.77;0.83;;;-0.90;99.90;;;;;;5035342;28;20506;-77
2022/03/03 04:37:19;;;;;;;0.70;0.70;;;-1.00;99.90;;;;;;5035017;28;20453;-77
2022/03/03 04:39:47;;;;;;;1.70;1.07;;;-1.00;99.90;;;;;;5035118;28;20485;-77
2022/03/03 04:42:14;;;;;;;1.13;0.57;;;-1.00;99.90;;;;;;5034944;28;20470;-77
2022/03/03 04:44:41;;;;;;;0.70;0.70;;;-1.10;99.90;;;;;;5034963;28;20496;-77
2022/03/03 04:47:08;;;;;;;0.40;0.40;;;-1.10;99.90;;;;;;5035028;28;20450;-77
2022/03/03 04:49:34;;;;;;;0.30;0.30;;;-1.10;99.90;;;;;;5034748;28;20459;-77
2022/03/03 04:52:01;;;;;;;0.40;0.40;;;-1.10;99.90;;;;;;5034798;28;20427;-76
2022/03/03 04:54:28;;;;;;;0.40;0.40;;;-1.10;99.90;;;;;;5035672;28;20470;-77
2022/03/03 04:56:56;;;;;;;0.30;0.30;;;-1.20;99.90;;;;;;5035438;28;20447;-77
2022/03/03 04:59:24;;;;;;;0.40;0.40;;;-1.10;99.90;;;;;;5034601;28;20514;-77
2022/03/03 05:01:51;;;;;;;0.30;0.30;;;-1.00;99.90;;;;;;5034440;28;20844;-77
2022/03/03 05:04:19;;;;;;;0.77;0.70;;;-1.00;99.90;;;;;;5034634;28;20467;-77
2022/03/03 05:06:46;;;;;;;0.30;0.30;;;-1.00;99.90;;;;;;5034486;28;20500;-77
2022/03/03 05:09:13;;;;;;;0.30;0.20;;;-1.00;99.90;;;;;;5034207;28;20966;-76
2022/03/03 05:11:40;;;;;;;0.30;0.30;;;-1.00;99.90;;;;;;5034614;28;20443;-77
2022/03/03 05:14:08;;;;;;;0.50;0.50;;;-1.00;99.90;;;;;;5034656;28;20501;-77
2022/03/03 05:16:35;;;;;;;0.30;0.30;;;-1.10;99.90;;;;;;5034318;28;20843;-76
2022/03/03 05:19:02;;;;;;;0.30;0.30;;;-1.00;99.90;;;;;;5034290;28;20473;-77
2022/03/03 05:21:28;;;;;;;0.50;0.50;;;-1.00;99.90;;;;;;5034116;28;20443;-77
2022/03/03 05:23:55;;;;;;;0.70;0.70;;;-1.00;99.90;;;;;;5034270;28;20474;-77
2022/03/03 05:26:22;;;;;;;0.50;0.50;;;-1.10;99.90;;;;;;5034134;28;20447;-77
2022/03/03 05:28:49;;;;;;;0.30;0.30;;;-1.20;99.90;;;;;;5034249;28;20470;-77
2022/03/03 05:31:17;;;;;;;1.57;1.47;;;-1.20;99.90;;;;;;5033804;28;20446;-76
2022/03/03 05:33:44;;;;;;;1.70;1.60;;;-1.30;99.90;;;;;;5032846;28;20481;-77
2022/03/03 05:36:11;;;;;;;0.50;0.50;;;-1.40;99.90;;;;;;5033826;28;20950;-77
2022/03/03 05:38:38;;;;;;;0.50;0.50;;;-1.40;99.90;;;;;;5034123;28;20515;-77
2022/03/03 05:41:06;;;;;;;0.30;0.30;;;-1.40;99.90;;;;;;5034322;28;20438;-77
2022/03/03 05:43:34;;;;;;;0.40;0.40;;;-1.40;99.90;;;;;;5034094;28;20470;-77
2022/03/03 05:46:01;;;;;;;0.60;0.57;;;-1.40;99.90;;;;;;5034004;28;20452;-77
2022/03/03 05:48:29;;;;;;;0.30;0.30;;;-1.30;99.90;;;;;;5033914;28;20473;-77
2022/03/03 05:50:57;;;;;;;0.50;0.50;;;-1.40;99.90;;;;;;5033931;28;20493;-77
2022/03/03 05:53:24;;;;;;;0.70;0.70;;;-1.40;99.90;;;;;;5033858;28;20446;-77
2022/03/03 05:55:53;;;;;;;0.97;0.97;;;-1.40;99.90;;;;;;5033180;28;20789;-77
2022/03/03 05:58:23;;;;;;;0.97;0.97;;;-1.40;99.90;;;;;;5033429;28;20448;-77
2022/03/03 06:00:54;;;;;;;0.30;0.30;;;-1.30;99.90;;;;;;5033453;28;20463;-77
2022/03/03 06:03:22;;;;;;;0.30;0.20;;;-1.30;99.90;;;;;;5033569;28;20431;-77
2022/03/03 06:05:52;;;;;;;0.30;0.30;;;-1.30;99.90;;;;;;5033647;28;20453;-77
2022/03/03 06:08:26;;;;;;;2.37;2.27;;;-1.20;99.90;;;;;;5033345;28;20467;-77
2022/03/03 06:10:54;;;;;;;0.60;0.60;;;-1.30;99.90;;;;;;5033192;28;20478;-77
2022/03/03 06:13:24;;;;;;;0.50;0.50;;;-1.30;99.90;;;;;;5033315;28;20427;-78
2022/03/03 06:15:51;;;;;;;1.73;1.73;;;-1.30;99.90;;;;;;5033274;28;20478;-77
2022/03/03 06:18:21;;;;;;;0.40;0.30;;;-1.30;99.90;;;;;;5033561;28;20493;-77
2022/03/03 06:20:50;;;;;;;0.40;0.40;;;-1.30;99.90;;;;;;5033294;28;20489;-77
2022/03/03 06:23:18;;;;;;;0.30;0.30;;;-1.30;99.90;;;;;;5032935;28;20450;-77
2022/03/03 06:25:46;;;;;;;0.80;0.80;;;-1.20;99.90;;;;;;5032878;28;20438;-77
2022/03/03 06:28:12;;;;;;;0.30;0.20;;;-1.20;99.90;;;;;;5033057;28;20474;-77
2022/03/03 06:30:39;;;;;;;0.30;0.30;;;-1.10;99.90;;;;;;5033171;28;20443;-77
2022/03/03 06:33:06;;;;;;;1.30;1.30;;;-1.10;99.90;;;;;;5033126;28;20453;-77
2022/03/03 06:35:35;;;;;;;0.50;0.50;;;-1.00;99.90;;;;;;5032650;28;21005;-77
2022/03/03 06:38:04;;;;;;;0.30;0.30;;;-1.00;99.90;;;;;;5033014;28;20474;-77
2022/03/03 06:40:32;;;;;;;1.30;0.70;;;-1.00;99.90;;;;;;5033036;28;20439;-77
2022/03/03 06:43:00;;;;;;;0.40;0.40;;;-0.90;99.90;;;;;;5035395;28;20454;-78
2022/03/03 06:45:28;;;;;;;0.93;0.93;;;-0.90;99.90;;;;;;5037624;28;20786;-78
2022/03/03 06:47:55;;;;;;;0.50;0.43;;;-0.80;99.90;;;;;;5039865;28;21000;-78
2022/03/03 06:50:22;;;;;;;0.37;0.37;;;-0.80;99.90;;;;;;5040162;28;20481;-77
2022/03/03 06:52:50;;;;;;;0.40;0.30;;;-0.80;99.90;;;;;;5039751;28;20469;-77
2022/03/03 06:55:20;;;;;;;0.50;0.50;;;-0.80;99.90;;;;;;5039842;28;20460;-77
2022/03/03 06:57:49;;;;;;;0.30;0.30;;;-0.80;99.90;;;;;;5039967;28;20470;-77
2022/03/03 07:00:19;;;;;;;2.23;0.67;;;-0.70;99.90;;;;;;5039898;28;20798;-77
2022/03/03 07:02:47;;;;;;;0.30;0.30;;;-0.70;99.90;;;;;;5038672;28;20451;-77
2022/03/03 07:05:15;;;;;;;0.30;0.30;;;-0.60;99.90;;;;;;5039093;28;20470;-77
2022/03/03 07:07:43;;;;;;;0.30;0.30;;;-0.50;99.90;;;;;;5037984;28;20446;-77
2022/03/03 07:10:11;;;;;;;0.50;0.50;;;-0.40;99.90;;;;;;5038168;28;20559;-76
2022/03/03 07:12:38;;;;;;;11.90;1.17;;;-0.30;99.90;;;;;;5038610;28;20446;-77
2022/03/03 07:15:07;;;;;;;0.30;0.30;;;-0.10;99.90;;;;;;5039877;28;20474;-78
2022/03/03 07:17:44;;;;;;;2.53;2.43;;;0.00;99.90;;;;;;5036239;28;20446;-77
2022/03/03 07:20:15;;;;;;;0.97;0.50;;;0.10;99.90;;;;;;5039115;28;20464;-79
2022/03/03 07:22:55;;;;;;;1.07;0.80;;;0.20;99.90;;;;;;5036453;28;20493;-77
2022/03/03 07:25:23;;;;;;;0.80;0.80;;;0.30;99.90;;;;;;5036282;28;20906;-77
2022/03/03 07:27:55;;;;;;;0.43;0.43;;;0.40;99.90;;;;;;5036196;28;20471;-76
2022/03/03 07:30:23;;;;;;;0.40;0.40;;;0.50;99.90;;;;;;5036479;28;20438;-77
2022/03/03 07:32:55;;;;;;;0.30;0.30;;;0.50;99.90;;;;;;5036672;28;20454;-77
2022/03/03 07:35:25;;;;;;;0.33;0.33;;;0.60;99.90;;;;;;5036235;28;20465;-77
2022/03/03 07:37:57;;;;;;;0.30;0.30;;;0.60;99.90;;;;;;5036003;28;20451;-76
2022/03/03 07:40:27;;;;;;;0.83;0.83;;;0.70;99.90;;;;;;5036339;28;20513;-76
2022/03/03 07:42:54;;;;;;;0.70;0.70;;;0.70;99.90;;;;;;5036235;28;20446;-76
2022/03/03 07:45:23;;;;;;;0.30;0.30;;;0.80;99.90;;;;;;5036341;28;20558;-77
2022/03/03 07:47:50;;;;;;;0.30;0.30;;;0.90;99.90;;;;;;5036597;28;20475;-77
2022/03/03 07:50:17;;;;;;;0.40;0.40;;;1.00;99.90;;;;;;5036823;28;20913;-76
2022/03/03 07:52:45;;;;;;;0.50;0.50;;;1.20;99.90;;;;;;5036852;28;20465;-76
2022/03/03 07:55:12;;;;;;;0.40;0.40;;;1.20;99.90;;;;;;5036908;28;20483;-76
2022/03/03 07:57:41;;;;;;;0.90;0.87;;;1.20;99.90;;;;;;5036513;28;20442;-76
2022/03/03 08:00:10;;;;;;;1.03;1.03;;;1.30;99.90;;;;;;5039100;28;20473;-77
2022/03/03 08:02:42;;;;;;;0.40;0.40;;;1.40;99.90;;;;;;5039598;28;20938;-77
2022/03/03 08:05:09;;;;;;;0.30;0.30;;;1.40;99.90;;;;;;5039267;28;20450;-77
2022/03/03 08:07:42;;;;;;;0.60;0.60;;;1.40;99.90;;;;;;5039578;28;20862;-77
2022/03/03 08:10:10;;;;;;;0.93;0.93;;;1.50;99.90;;;;;;5040872;28;20483;-77
2022/03/03 08:12:38;;;;;;;1.33;1.27;;;1.50;99.90;;;;;;5040660;28;20451;-76
2022/03/03 08:15:07;;;;;;;0.40;0.40;;;1.50;99.90;;;;;;5040652;28;20489;-77
2022/03/03 08:17:34;;;;;;;1.97;1.90;;;1.60;99.90;;;;;;5041476;28;20417;-77
2022/03/03 08:20:07;;;;;;;0.50;0.50;;;1.70;99.90;;;;;;5040966;28;20442;-77
2022/03/03 08:22:35;;;;;;;2.53;1.27;;;1.90;99.90;;;;;;5039964;28;20427;-77
2022/03/03 08:25:02;;;;;;;0.50;0.50;;;2.10;99.90;;;;;;5040395;28;20446;-77
2022/03/03 08:27:29;;;;;;;0.30;0.30;;;2.20;99.90;;;;;;5040154;28;20431;-77
2022/03/03 08:29:56;;;;;;;0.40;0.40;;;2.30;99.90;;;;;;5041037;28;20427;-77
2022/03/03 08:32:23;;;;;;;0.40;0.40;;;2.50;99.90;;;;;;5040821;28;20477;-77
2022/03/03 08:35:01;;;;;;;0.40;0.40;;;2.70;99.90;;;;;;5038044;28;20491;-76
2022/03/03 08:37:34;;;;;;;0.50;0.50;;;2.80;99.90;;;;;;5037206;28;20434;-77
2022/03/03 08:40:02;;;;;;;4.97;1.13;;;2.90;99.90;;;;;;5037189;28;20925;-77
2022/03/03 08:42:34;;;;;;;2.20;1.63;;;3.10;99.90;;;;;;5037846;28;20438;-76
2022/03/03 08:45:03;;;;;;;0.77;0.77;;;3.30;99.90;;;;;;5038389;28;20422;-76
2022/03/03 08:47:31;;;;;;;0.47;0.47;;;3.50;99.90;;;;;;5038211;28;20796;-76
2022/03/03 08:50:00;;;;;;;0.30;0.30;;;3.70;99.90;;;;;;5039378;28;20427;-76
2022/03/03 08:52:29;;;;;;;1.50;1.40;;;3.80;99.90;;;;;;5038553;28;20439;-76
2022/03/03 08:54:56;;;;;;;2.20;2.10;;;4.10;99.90;;;;;;5038414;28;20482;-76
2022/03/03 08:57:23;;;;;;;0.67;0.67;;;4.40;99.90;;;;;;5039566;28;20443;-76
2022/03/03 08:59:50;;;;;;;0.30;0.30;;;4.60;99.90;;;;;;5039896;28;20438;-77
2022/03/03 09:02:18;;;;;;;0.30;0.30;;;4.90;99.90;;;;;;5039458;28;20438;-77
2022/03/03 09:04:46;;;;;;;2.73;1.33;;;5.20;99.90;;;;;;5038630;28;20427;-77
2022/03/03 09:07:13;;;;;;;0.30;0.30;;;5.60;99.90;;;;;;5037930;28;20466;-76
2022/03/03 09:09:42;;;;;;;0.50;0.50;;;6.10;99.90;;;;;;5043505;28;20490;-77
2022/03/03 09:12:09;;;;;;;1.03;1.03;;;6.90;99.90;;;;;;5037245;28;20486;-76
2022/03/03 09:14:36;;;;;;;0.53;0.50;;;8.00;98.70;;;;;;5033837;28;20450;-77
2022/03/03 09:17:04;;;;;;;0.80;0.80;;;9.50;93.70;;;;;;5034040;28;20437;-78
2022/03/03 09:19:30;;;;;;;1.43;1.33;;;10.90;85.20;;;;;;5033576;28;20498;-80
2022/03/03 09:21:57;;;;;;;0.73;0.40;;;12.00;74.10;;;;;;5033938;28;20407;-77
2022/03/03 09:24:24;;;;;;;1.40;1.40;;;13.10;68.20;;;;;;5033790;28;20792;-76
2022/03/03 09:26:54;;;;;;;2.00;1.60;;;14.20;61.30;;;;;;5033824;28;20486;-77
2022/03/03 09:29:21;;;;;;;7.83;2.10;;;15.40;57.60;;;;;;5033450;28;20563;-77
2022/03/03 09:31:48;;;;;;;6.40;2.37;;;16.50;55.80;;;;;;5033765;28;20438;-78
2022/03/03 09:34:15;;;;;;;2.60;2.37;;;17.40;51.70;;;;;;5033953;28;20435;-77
2022/03/03 09:36:42;;;;;;;3.47;2.20;;;18.20;48.10;;;;;;5033622;28;20467;-77
2022/03/03 09:39:09;;;;;;;3.27;2.03;;;19.00;47.20;;;;;;5033287;28;20997;-77
2022/03/03 09:41:36;;;;;;;3.90;2.03;;;19.70;44.50;;;;;;5033316;28;20902;-77
2022/03/03 09:44:05;;;;;;;3.40;2.47;;;20.40;44.20;;;;;;5033602;28;20430;-77
2022/03/03 09:46:35;;;;;;;3.63;2.63;;;20.90;42.30;;;;;;5033532;28;20910;-77
2022/03/03 09:49:03;;;;;;;4.90;3.20;;;21.10;41.30;;;;;;5033463;28;20227;-77
2022/03/03 09:51:30;;;;;;;3.22;2.38;;;21.30;41.10;;;;;;5033256;28;20199;-78
2022/03/03 09:53:56;;;;;;;3.88;2.47;;;21.30;39.50;;;;;;5033469;28;20194;-77
2022/03/03 09:56:23;;;;;;;6.57;3.63;;;21.10;38.10;;;;;;5033684;28;20211;-77
2022/03/03 09:58:50;;;;;;;4.70;2.53;;;21.00;37.40;;;;;;5032950;28;20223;-77
2022/03/03 10:01:18;;;;;;;7.50;2.45;;;21.00;36.90;;;;;;5033406;28;20191;-77
2022/03/03 10:03:47;;;;;;;3.05;2.83;;;21.10;37.60;;;;;;5033159;28;20183;-77
2022/03/03 10:06:14;;;;;;;5.97;2.85;;;21.20;36.80;;;;;;5033403;28;20238;-77
2022/03/03 10:08:41;;;;;;;8.93;3.77;;;21.20;36.00;;;;;;5032955;28;20594;-77
2022/03/03 10:11:09;;;;;;;5.63;2.47;;;20.90;36.40;;;;;;5033137;28;20238;-77
2022/03/03 10:13:46;;;;;;;4.57;2.23;;;20.60;35.10;;;;;;5033001;28;20616;-78
2022/03/03 10:16:23;;;;;;;10.13;4.80;;;20.00;35.90;;;;;;5033205;28;20210;-77
2022/03/03 10:18:59;;;;;;;4.30;2.40;;;19.80;38.50;;;;;;5033175;28;20230;-77
2022/03/03 10:21:28;;;;;;;5.63;2.00;;;19.80;37.70;;;;;;5036015;28;20441;-77
2022/03/03 10:23:55;;;;;;;3.77;3.37;;;19.50;37.50;;;;;;5036887;28;20426;-77
2022/03/03 10:26:33;;;;;;;2.43;1.50;;;19.40;37.50;;;;;;5036917;28;20437;-77
2022/03/03 10:29:00;;;;;;;3.90;2.07;;;19.80;38.40;;;;;;5036965;28;20476;-77
2022/03/03 10:31:28;;;;;;;3.53;2.20;;;20.40;38.00;;;;;;5036743;28;20861;-77
2022/03/03 10:33:55;;;;;;;6.33;2.77;;;21.00;36.50;;;;;;5036966;28;20924;-77
2022/03/03 10:36:23;;;;;;;3.83;2.13;;;21.80;35.20;;;;;;5036473;28;20537;-77
2022/03/03 10:38:54;;;;;;;2.43;2.33;;;22.80;34.90;;;;;;5036857;28;20474;-77
2022/03/03 10:41:38;;;;;;;3.55;1.60;;;23.60;33.40;;;;;;5036922;28;20270;-77
2022/03/03 10:44:08;;;;;;;5.85;2.95;;;24.40;31.30;;;;;;5035250;28;20231;-77
2022/03/03 10:46:37;;;;;;;5.57;2.58;;;24.90;30.50;;;;;;5036487;28;20641;-77
2022/03/03 10:49:20;;;;;;;3.88;2.08;;;25.30;29.50;;;;;;5036538;28;20235;-77
2022/03/03 10:51:47;;;;;;;6.90;3.13;;;25.80;29.10;;;;;;5036457;28;20757;-77
2022/03/03 10:54:14;;;;;;;3.78;2.80;;;26.10;28.70;;;;;;5036614;28;20203;-77
2022/03/03 10:56:46;;;;;;;3.60;1.80;;;26.20;28.70;;;;;;5036543;28;20223;-77
2022/03/03 10:59:21;;;;;;;6.50;2.55;;;26.40;25.90;;;;;;5036471;28;20597;-77
2022/03/03 11:01:49;;;;;;;6.32;2.55;;;26.10;27.20;;;;;;5036775;28;20191;-76
2022/03/03 11:04:18;;;;;;;5.82;3.10;;;25.30;28.10;;;;;;5036450;28;20208;-77
2022/03/03 11:06:48;;;;;;;8.90;3.97;;;25.50;29.00;;;;;;5036407;28;20230;-77
2022/03/03 11:09:16;;;;;;;9.75;3.22;;;25.20;29.20;;;;;;5036309;28;20774;-77
2022/03/03 11:11:43;;;;;;;7.63;4.38;;;24.50;30.40;;;;;;5036390;28;20219;-77
2022/03/03 11:14:11;;;;;;;9.40;3.75;;;23.60;31.60;;;;;;5036313;28;20210;-77
2022/03/03 11:16:41;;;;;;;7.65;3.90;;;22.20;34.40;;;;;;5035833;28;20251;-77
2022/03/03 11:19:10;;;;;;;8.52;5.03;;;20.80;36.10;;;;;;5036101;28;20322;-76
2022/03/03 11:21:37;;;;;;;6.13;4.17;;;19.40;36.90;;;;;;5036147;28;20199;-76
2022/03/03 11:24:04;;;;;;;6.77;3.53;;;17.90;38.60;;;;;;5036045;28;20214;-76
2022/03/03 11:26:34;;;;;;;4.60;4.17;;;16.90;40.90;;;;;;5036168;28;20447;-77
2022/03/03 11:29:03;;;;;;;6.43;4.60;;;16.10;41.60;;;;;;5035909;28;20807;-77
2022/03/03 11:31:32;;;;;;;6.83;2.40;;;15.60;42.90;;;;;;5035876;28;20450;-76
2022/03/03 11:34:23;;;;;;;8.27;3.10;;;15.10;44.80;;;;;;5035832;28;20450;-76
2022/03/03 11:36:50;;;;;;;5.37;1.73;;;14.70;44.30;;;;;;5035810;28;20532;-76
2022/03/03 11:39:46;;;;;;;8.20;2.53;;;14.30;45.40;;;;;;5036004;28;20459;-77
2022/03/03 11:42:24;;;;;;;4.47;2.03;;;14.00;46.50;;;;;;5001248;28;20474;-76
2022/03/03 11:44:54;;;;;;;5.60;2.13;;;13.80;46.30;;;;;;5035946;28;20431;-77
2022/03/03 11:47:23;;;;;;;5.57;1.77;;;13.60;46.60;;;;;;5035838;28;20443;-76
2022/03/03 11:50:16;;;;;;;4.47;1.53;;;13.50;46.50;;;;;;5035603;28;20466;-76
2022/03/03 11:52:44;;;;;;;3.10;1.57;;;13.40;45.90;;;;;;5035474;28;20477;-76
2022/03/03 11:55:29;;;;;;;3.13;2.07;;;13.20;48.30;;;;;;5035506;28;20426;-76
2022/03/03 11:57:59;;;;;;;4.93;2.00;;;13.10;47.20;;;;;;5035405;28;20466;-76
2022/03/03 12:00:27;;;;;;;5.37;3.10;;;13.00;47.90;;;;;;5035506;28;20435;-76
2022/03/03 12:02:56;;;;;;;2.60;1.33;;;12.90;47.60;;;;;;5035488;28;20435;-76
2022/03/03 12:05:44;;;;;;;5.53;1.97;;;12.60;47.60;;;;;;5035411;28;20431;-75
2022/03/03 12:08:34;;;;;;;6.07;1.50;;;12.40;48.80;;;;;;5034863;28;20474;-76
2022/03/03 12:11:07;;;;;;;1.30;1.20;;;12.30;48.70;;;;;;5035071;28;20486;-76
2022/03/03 12:13:36;;;;;;;4.47;2.53;;;12.20;48.30;;;;;;5034907;28;20483;-76
2022/03/03 12:16:23;;;;;;;6.30;1.07;;;12.00;49.30;;;;;;5034769;28;20466;-76
2022/03/03 12:19:04;;;;;;;4.50;2.37;;;12.00;49.30;;;;;;5035060;28;20502;-76
2022/03/03 12:21:35;;;;;;;3.77;1.63;;;11.90;48.80;;;;;;5035325;28;20430;-76
2022/03/03 12:24:31;;;;;;;1.47;1.47;;;11.70;49.10;;;;;;5034708;28;20431;-76
2022/03/03 12:27:03;;;;;;;4.10;1.90;;;11.60;49.40;;;;;;5035469;28;20530;-76
2022/03/03 12:29:31;;;;;;;3.33;1.80;;;11.60;49.00;;;;;;5034782;28;20481;-76
2022/03/03 12:31:59;;;;;;;1.50;1.40;;;11.50;49.00;;;;;;5034809;28;20462;-76
2022/03/03 12:34:26;;;;;;;1.83;1.57;;;11.30;49.60;;;;;;5034465;28;20942;-76
2022/03/03 12:36:56;;;;;;;2.07;1.50;;;11.10;49.70;;;;;;5034645;28;20577;-76
2022/03/03 12:39:23;;;;;;;0.90;0.90;;;11.10;49.30;;;;;;5034637;28;20474;-76
2022/03/03 12:41:53;;;;;;;1.53;1.27;;;10.90;49.40;;;;;;5034327;28;20454;-76
2022/03/03 12:44:20;;;;;;;1.97;1.60;;;10.80;49.30;;;;;;5034051;28;20446;-76
2022/03/03 12:46:47;;;;;;;4.70;1.60;;;10.70;50.00;;;;;;5034499;28;20447;-76
2022/03/03 12:49:15;;;;;;;2.53;1.97;;;10.70;49.40;;;;;;5034627;28;20818;-76
2022/03/03 12:51:43;;;;;;;1.17;0.80;;;10.70;49.70;;;;;;5034105;28;20942;-75
2022/03/03 12:54:12;;;;;;;2.10;0.87;;;10.70;48.70;;;;;;5034365;28;20452;-76
2022/03/03 12:56:40;;;;;;;3.37;2.10;;;10.70;47.80;;;;;;5033942;28;20482;-75